createdAt,value
2023-08-29T00:00:09.229Z,5.38
2023-08-29T00:02:41.710Z,3.63
2023-08-29T00:05:10.004Z,3.20
2023-08-29T00:07:37.584Z,4.70
2023-08-29T00:10:04.578Z,4.25
2023-08-29T00:12:33.125Z,4.03
2023-08-29T00:15:00.578Z,2.40
2023-08-29T00:17:27.772Z,6.55
2023-08-29T00:19:54.756Z,4.53
2023-08-29T00:22:21.469Z,4.72
2023-08-29T00:24:53.308Z,4.30
2023-08-29T00:27:20.670Z,4.03
2023-08-29T00:29:47.269Z,4.00
2023-08-29T00:32:13.743Z,5.50
2023-08-29T00:34:40.109Z,3.47
2023-08-29T00:37:06.828Z,6.88
2023-08-29T00:39:33.271Z,3.50
2023-08-29T00:42:00.482Z,2.92
2023-08-29T00:44:27.249Z,3.45
2023-08-29T00:46:54.395Z,4.28
2023-08-29T00:49:24.303Z,9.48
2023-08-29T00:51:51.330Z,5.82
2023-08-29T00:54:18.975Z,3.42
2023-08-29T00:56:46.422Z,4.65
2023-08-29T00:59:13.512Z,5.13
2023-08-29T01:01:40.411Z,3.55
2023-08-29T01:04:07.228Z,5.10
2023-08-29T01:06:34.131Z,4.05
2023-08-29T01:09:01.858Z,4.40
2023-08-29T01:11:57.434Z,4.28
2023-08-29T01:14:43.584Z,4.32
2023-08-29T01:17:17.348Z,5.80
2023-08-29T01:19:49.259Z,4.03
2023-08-29T01:23:08.139Z,4.60
2023-08-29T01:26:15.320Z,6.70
2023-08-29T01:28:46.756Z,5.60
2023-08-29T01:31:13.809Z,4.93
2023-08-29T01:33:43.827Z,6.70
2023-08-29T01:36:10.331Z,6.50
2023-08-29T01:38:36.732Z,7.68
2023-08-29T01:41:03.296Z,7.30
2023-08-29T01:43:29.803Z,5.90
2023-08-29T01:45:56.226Z,4.93
2023-08-29T01:48:22.854Z,4.47
2023-08-29T01:50:49.512Z,5.97
2023-08-29T01:53:15.945Z,5.68
2023-08-29T01:55:44.977Z,5.63
2023-08-29T01:58:12.992Z,4.95
2023-08-29T02:00:40.196Z,4.47
2023-08-29T02:03:06.759Z,6.25
2023-08-29T02:05:33.259Z,6.32
2023-08-29T02:07:59.609Z,6.57
2023-08-29T02:10:26.030Z,5.95
2023-08-29T02:12:52.386Z,6.32
2023-08-29T02:15:18.893Z,5.03
2023-08-29T02:17:45.663Z,5.07
2023-08-29T02:20:12.251Z,5.82
2023-08-29T02:22:38.703Z,5.70
2023-08-29T02:25:06.033Z,4.97
2023-08-29T02:27:36.081Z,4.93
2023-08-29T02:30:05.599Z,5.43
2023-08-29T02:32:35.195Z,7.85
2023-08-29T02:35:02.469Z,4.85
2023-08-29T02:37:28.856Z,6.25
2023-08-29T02:39:55.208Z,5.00
2023-08-29T02:42:21.561Z,5.78
2023-08-29T02:44:47.902Z,4.70
2023-08-29T02:47:14.416Z,8.50
2023-08-29T02:49:40.777Z,10.23
2023-08-29T02:52:07.201Z,7.25
2023-08-29T02:54:33.685Z,9.13
2023-08-29T02:57:00.071Z,6.78
2023-08-29T02:59:27.388Z,7.32
2023-08-29T03:01:53.806Z,7.55
2023-08-29T03:04:20.524Z,5.60
2023-08-29T03:06:46.924Z,5.25
2023-08-29T03:09:13.454Z,5.63
2023-08-29T03:11:39.837Z,6.60
2023-08-29T03:14:06.470Z,7.93
2023-08-29T03:16:32.885Z,6.60
2023-08-29T03:18:59.320Z,6.18
2023-08-29T03:21:25.667Z,5.75
2023-08-29T03:23:52.062Z,5.07
2023-08-29T03:26:18.452Z,7.75
2023-08-29T03:28:46.588Z,5.30
2023-08-29T03:31:14.801Z,5.38
2023-08-29T03:33:42.731Z,5.90
2023-08-29T03:36:10.261Z,6.30
2023-08-29T03:38:39.549Z,6.68
2023-08-29T03:41:07.024Z,7.75
2023-08-29T03:43:34.907Z,6.35
2023-08-29T03:46:03.625Z,7.05
2023-08-29T03:48:31.789Z,6.63
2023-08-29T03:51:08.487Z,8.90
2023-08-29T03:53:38.252Z,6.93
2023-08-29T03:56:06.580Z,6.95
2023-08-29T03:58:33.634Z,5.30
2023-08-29T04:01:00.762Z,8.38
2023-08-29T04:03:27.414Z,5.85
2023-08-29T04:05:54.002Z,8.75
2023-08-29T04:08:20.450Z,7.28
2023-08-29T04:10:47.358Z,8.77
2023-08-29T04:13:13.779Z,5.82
2023-08-29T04:15:40.232Z,7.13
2023-08-29T04:18:07.358Z,7.63
2023-08-29T04:20:34.102Z,7.30
2023-08-29T04:23:04.002Z,7.10
2023-08-29T04:25:31.247Z,6.68
2023-08-29T04:27:57.699Z,5.85
2023-08-29T04:30:24.419Z,9.52
2023-08-29T04:32:53.696Z,6.43
2023-08-29T04:35:20.375Z,7.85
2023-08-29T04:37:49.434Z,9.10
2023-08-29T04:40:18.112Z,6.22
2023-08-29T04:42:47.992Z,8.63
2023-08-29T04:45:14.425Z,6.57
2023-08-29T04:47:40.938Z,7.20
2023-08-29T04:50:09.061Z,7.68
2023-08-29T04:52:35.531Z,9.70
2023-08-29T04:55:02.221Z,10.23
2023-08-29T04:57:28.591Z,8.05
2023-08-29T04:59:54.963Z,8.70
2023-08-29T05:02:22.341Z,7.05
2023-08-29T05:04:49.100Z,9.00
2023-08-29T05:07:15.620Z,10.95
2023-08-29T05:09:42.374Z,8.90
2023-08-29T05:12:11.382Z,14.10
2023-08-29T05:14:39.572Z,8.85
2023-08-29T05:17:07.028Z,10.00
2023-08-29T05:19:33.409Z,8.38
2023-08-29T05:22:00.098Z,9.57
2023-08-29T05:24:27.107Z,10.57
2023-08-29T05:26:53.514Z,8.30
2023-08-29T05:29:19.914Z,8.82
2023-08-29T05:31:46.384Z,8.55
2023-08-29T05:34:12.731Z,10.70
2023-08-29T05:36:39.318Z,7.18
2023-08-29T05:39:05.767Z,7.15
2023-08-29T05:41:32.545Z,8.50
2023-08-29T05:43:58.974Z,8.45
2023-08-29T05:46:25.410Z,9.70
2023-08-29T05:48:51.895Z,6.80
2023-08-29T05:51:18.257Z,10.65
2023-08-29T05:53:44.609Z,8.77
2023-08-29T05:56:10.965Z,9.25
2023-08-29T05:58:37.349Z,9.20
2023-08-29T06:01:07.560Z,8.93
2023-08-29T06:03:35.589Z,6.85
2023-08-29T06:06:04.455Z,7.18
2023-08-29T06:08:34.310Z,6.78
2023-08-29T06:11:01.850Z,8.02
2023-08-29T06:13:28.629Z,7.47
2023-08-29T06:15:55.168Z,17.42
2023-08-29T06:18:21.793Z,8.85
2023-08-29T06:20:48.179Z,9.38
2023-08-29T06:23:14.586Z,7.40
2023-08-29T06:25:42.402Z,9.23
2023-08-29T06:28:09.012Z,8.20
2023-08-29T06:30:37.088Z,10.25
2023-08-29T06:33:07.432Z,7.75
2023-08-29T06:35:39.110Z,7.73
2023-08-29T06:38:06.371Z,9.30
2023-08-29T06:40:33.388Z,9.27
2023-08-29T06:42:59.767Z,8.10
2023-08-29T06:45:26.780Z,7.15
2023-08-29T06:47:53.430Z,6.82
2023-08-29T06:50:19.844Z,6.65
2023-08-29T06:52:46.219Z,6.47
2023-08-29T06:55:12.700Z,7.10
2023-08-29T06:57:39.086Z,7.68
2023-08-29T07:00:05.949Z,6.63
2023-08-29T07:02:32.404Z,7.45
2023-08-29T07:04:58.780Z,6.38
2023-08-29T07:07:25.188Z,7.55
2023-08-29T07:09:51.595Z,9.23
2023-08-29T07:12:20.254Z,5.25
2023-08-29T07:14:47.743Z,5.90
2023-08-29T07:17:14.166Z,4.68
2023-08-29T07:19:40.626Z,6.18
2023-08-29T07:22:22.839Z,5.82
2023-08-29T07:24:51.324Z,4.65
2023-08-29T07:27:18.100Z,4.70
2023-08-29T07:29:44.578Z,6.15
2023-08-29T07:32:11.037Z,4.82
2023-08-29T07:34:40.422Z,7.03
2023-08-29T07:37:07.541Z,5.60
2023-08-29T07:39:33.941Z,5.93
2023-08-29T07:42:01.130Z,8.43
2023-08-29T07:44:27.531Z,4.30
2023-08-29T07:47:11.924Z,5.28
2023-08-29T07:49:40.290Z,3.83
2023-08-29T07:52:06.919Z,4.75
2023-08-29T07:54:33.330Z,9.30
2023-08-29T07:56:59.757Z,5.15
2023-08-29T07:59:26.142Z,4.30
2023-08-29T08:01:53.231Z,4.22
2023-08-29T08:04:19.865Z,4.78
2023-08-29T08:06:46.321Z,6.85
2023-08-29T08:09:13.998Z,7.30
2023-08-29T08:11:40.466Z,3.30
2023-08-29T08:14:06.854Z,10.43
2023-08-29T08:16:33.280Z,3.60
2023-08-29T08:18:59.784Z,5.18
2023-08-29T08:21:26.291Z,2.78
2023-08-29T08:23:53.307Z,3.35
2023-08-29T08:26:19.747Z,3.55
2023-08-29T08:28:46.165Z,3.25
2023-08-29T08:31:12.994Z,4.38
2023-08-29T08:33:41.191Z,2.03
2023-08-29T08:36:07.660Z,3.05
2023-08-29T08:38:34.137Z,2.90
2023-08-29T08:41:00.683Z,3.20
2023-08-29T08:43:29.008Z,4.82
2023-08-29T08:45:57.057Z,3.08
2023-08-29T08:48:23.951Z,3.65
2023-08-29T08:50:50.886Z,1.92
2023-08-29T08:53:21.286Z,6.00
2023-08-29T08:55:48.938Z,1.60
2023-08-29T08:58:15.492Z,3.00
2023-08-29T09:00:41.857Z,2.05
2023-08-29T09:03:08.772Z,1.75
2023-08-29T09:05:35.201Z,1.83
2023-08-29T09:08:02.369Z,2.13
2023-08-29T09:10:34.205Z,4.05
2023-08-29T09:13:00.634Z,1.60
2023-08-29T09:15:27.470Z,3.53
2023-08-29T09:17:54.873Z,2.38
2023-08-29T09:20:23.234Z,4.13
2023-08-29T09:22:49.797Z,2.70
2023-08-29T09:25:16.401Z,2.88
2023-08-29T09:27:48.089Z,2.78
2023-08-29T09:30:16.621Z,5.53
2023-08-29T09:32:44.478Z,3.33
2023-08-29T09:35:13.845Z,4.60
2023-08-29T09:37:43.159Z,2.63
2023-08-29T09:40:31.435Z,3.00
2023-08-29T09:43:03.757Z,2.08
2023-08-29T09:45:31.752Z,1.38
2023-08-29T09:48:08.929Z,2.08
2023-08-29T09:50:36.855Z,0.77
2023-08-29T09:53:03.816Z,0.75
2023-08-29T09:55:39.723Z,1.13
2023-08-29T09:58:07.677Z,4.50
2023-08-29T10:00:36.893Z,1.30
2023-08-29T10:03:08.220Z,3.67
2023-08-29T10:08:12.853Z,1.17
2023-08-29T10:10:43.734Z,3.85
2023-08-29T10:13:11.893Z,0.95
2023-08-29T10:15:40.939Z,0.75
2023-08-29T10:18:08.912Z,1.35
2023-08-29T10:20:36.504Z,2.90
2023-08-29T10:23:06.294Z,2.45
2023-08-29T10:25:32.718Z,1.27
2023-08-29T10:27:59.978Z,2.53
2023-08-29T10:30:27.007Z,3.13
2023-08-29T10:32:56.728Z,2.85
2023-08-29T10:35:27.078Z,2.20
2023-08-29T10:37:53.887Z,1.65
2023-08-29T10:40:21.324Z,1.70
2023-08-29T10:42:56.530Z,2.17
2023-08-29T10:45:42.747Z,2.58
2023-08-29T10:48:09.627Z,1.85
2023-08-29T10:50:38.035Z,1.20
2023-08-29T10:53:05.757Z,1.38
2023-08-29T10:55:42.131Z,3.58
2023-08-29T10:58:40.515Z,2.13
2023-08-29T11:01:09.748Z,1.77
2023-08-29T11:03:47.375Z,1.85
2023-08-29T11:06:14.016Z,3.15
2023-08-29T11:08:40.409Z,1.85
2023-08-29T11:11:17.590Z,2.53
2023-08-29T11:14:04.107Z,1.88
2023-08-29T11:16:38.813Z,2.05
2023-08-29T11:19:14.132Z,2.35
2023-08-29T11:21:43.691Z,1.13
2023-08-29T11:24:17.073Z,1.83
2023-08-29T11:26:47.787Z,3.45
2023-08-29T11:29:14.357Z,0.90
2023-08-29T11:31:44.310Z,1.48
2023-08-29T11:34:15.600Z,1.73
2023-08-29T11:36:45.918Z,1.25
2023-08-29T11:39:12.328Z,1.50
2023-08-29T11:41:54.050Z,2.55
2023-08-29T11:45:20.356Z,2.20
2023-08-29T11:47:16.300Z,0.90
2023-08-29T11:49:43.348Z,1.70
2023-08-29T11:52:10.271Z,1.80
2023-08-29T11:54:57.894Z,1.45
2023-08-29T11:57:24.439Z,1.58
2023-08-29T11:59:54.234Z,1.70
2023-08-29T12:02:24.416Z,2.85
2023-08-29T12:04:58.643Z,0.40
2023-08-29T12:07:32.530Z,0.65
2023-08-29T12:10:08.717Z,1.15
2023-08-29T12:12:39.417Z,1.42
2023-08-29T12:15:11.353Z,0.60
2023-08-29T12:17:47.748Z,2.15
2023-08-29T12:20:17.360Z,0.77
2023-08-29T12:22:51.711Z,1.10
2023-08-29T12:25:20.046Z,1.98
2023-08-29T12:27:47.103Z,0.55
2023-08-29T12:30:17.064Z,0.60
2023-08-29T12:32:45.085Z,3.08
2023-08-29T12:35:12.592Z,3.30
2023-08-29T12:37:39.372Z,1.90
2023-08-29T12:40:10.032Z,1.88
2023-08-29T12:42:37.285Z,3.85
2023-08-29T12:45:05.078Z,1.92
2023-08-29T12:47:31.548Z,1.05
2023-08-29T12:49:58.153Z,2.88
2023-08-29T12:52:24.578Z,1.42
2023-08-29T12:54:52.235Z,2.53
2023-08-29T12:57:18.677Z,2.50
2023-08-29T12:59:45.125Z,3.80
2023-08-29T13:02:11.493Z,1.88
2023-08-29T13:04:37.861Z,2.40
2023-08-29T13:07:04.550Z,1.85
2023-08-29T13:09:37.621Z,2.40
2023-08-29T13:12:08.343Z,4.80
2023-08-29T13:14:38.668Z,3.45
2023-08-29T13:17:06.629Z,4.57
2023-08-29T13:19:33.748Z,2.17
2023-08-29T13:22:02.060Z,2.08
2023-08-29T13:24:28.755Z,4.15
2023-08-29T13:26:55.168Z,3.65
2023-08-29T13:29:21.619Z,1.40
2023-08-29T13:31:48.088Z,1.98
2023-08-29T13:34:14.494Z,4.90
2023-08-29T13:36:43.804Z,3.20
2023-08-29T13:39:10.181Z,2.05
2023-08-29T13:41:36.549Z,2.72
2023-08-29T13:44:05.219Z,2.08
2023-08-29T13:46:31.664Z,1.88
2023-08-29T13:48:58.043Z,1.92
2023-08-29T13:51:24.429Z,2.25
2023-08-29T13:53:51.365Z,2.20
2023-08-29T13:56:17.757Z,3.95
2023-08-29T13:58:45.824Z,3.80
2023-08-29T14:01:14.186Z,1.45
2023-08-29T14:03:40.804Z,2.28
2023-08-29T14:06:07.344Z,2.15
2023-08-29T14:08:33.926Z,1.05
2023-08-29T14:11:05.542Z,1.40
2023-08-29T14:13:34.138Z,2.92
2023-08-29T14:16:04.258Z,0.75
2023-08-29T14:18:31.672Z,1.73
2023-08-29T14:20:58.590Z,2.70
2023-08-29T14:23:25.634Z,1.60
2023-08-29T14:25:52.449Z,1.10
2023-08-29T14:28:18.882Z,1.33
2023-08-29T14:30:45.589Z,1.00
2023-08-29T14:33:13.585Z,2.85
2023-08-29T14:35:40.414Z,1.17
2023-08-29T14:38:06.988Z,0.60
2023-08-29T14:40:33.595Z,0.85
2023-08-29T14:42:59.985Z,0.73
2023-08-29T14:45:26.788Z,0.50
2023-08-29T14:47:54.128Z,1.40
2023-08-29T14:50:21.203Z,0.43
2023-08-29T14:52:50.014Z,2.53
2023-08-29T14:55:21.422Z,0.40
2023-08-29T14:57:48.215Z,1.08
2023-08-29T15:00:15.573Z,5.55
2023-08-29T15:02:43.079Z,0.40
2023-08-29T15:05:10.256Z,1.15
2023-08-29T15:07:36.934Z,1.85
2023-08-29T15:10:04.645Z,2.67
2023-08-29T15:12:31.086Z,0.60
2023-08-29T15:14:57.577Z,1.15
2023-08-29T15:17:25.838Z,0.98
2023-08-29T15:19:52.401Z,1.50
2023-08-29T15:22:18.766Z,2.55
2023-08-29T15:24:45.159Z,1.63
2023-08-29T15:27:11.739Z,1.92
2023-08-29T15:29:38.102Z,2.08
2023-08-29T15:32:04.884Z,2.80
2023-08-29T15:34:31.661Z,2.22
2023-08-29T15:36:59.298Z,1.45
2023-08-29T15:39:25.672Z,2.20
2023-08-29T15:41:52.056Z,3.08
2023-08-29T15:44:18.421Z,4.10
2023-08-29T15:46:44.873Z,3.95
2023-08-29T15:49:11.261Z,2.17
2023-08-29T15:51:37.793Z,3.08
2023-08-29T15:54:04.328Z,5.03
2023-08-29T15:56:30.680Z,2.05
2023-08-29T15:58:57.059Z,3.13
2023-08-29T16:01:23.991Z,2.95
2023-08-29T16:03:51.481Z,2.80
2023-08-29T16:06:18.071Z,2.95
2023-08-29T16:08:44.584Z,4.95
2023-08-29T16:11:10.985Z,3.70
2023-08-29T16:13:37.409Z,4.55
2023-08-29T16:16:03.907Z,2.88
2023-08-29T16:18:30.332Z,3.67
2023-08-29T16:20:56.700Z,3.80
2023-08-29T16:23:23.113Z,2.35
2023-08-29T16:25:52.342Z,3.35
2023-08-29T16:28:23.681Z,3.63
2023-08-29T16:30:50.123Z,3.72
2023-08-29T16:33:16.573Z,3.85
2023-08-29T16:35:43.901Z,6.28
2023-08-29T16:38:10.454Z,4.10
2023-08-29T16:40:36.860Z,4.38
2023-08-29T16:43:03.451Z,4.20
2023-08-29T16:45:29.921Z,5.82
2023-08-29T16:47:56.369Z,7.10
2023-08-29T16:50:22.941Z,5.95
2023-08-29T16:52:49.325Z,4.55
2023-08-29T16:55:15.751Z,7.78
2023-08-29T16:57:42.237Z,5.18
2023-08-29T17:00:11.309Z,7.93
2023-08-29T17:02:38.419Z,6.40
2023-08-29T17:05:05.349Z,5.50
2023-08-29T17:07:32.573Z,4.95
2023-08-29T17:10:00.601Z,4.60
2023-08-29T17:12:27.091Z,5.75
2023-08-29T17:14:54.102Z,4.88
2023-08-29T17:17:21.037Z,7.40
2023-08-29T17:19:47.436Z,5.97
2023-08-29T17:22:13.913Z,5.13
2023-08-29T17:24:40.322Z,5.03
2023-08-29T17:27:07.170Z,3.97
2023-08-29T17:29:33.586Z,3.60
2023-08-29T17:32:00.375Z,4.65
2023-08-29T17:34:26.936Z,3.03
2023-08-29T17:36:53.353Z,3.60
2023-08-29T17:39:19.819Z,2.67
2023-08-29T17:41:46.210Z,2.88
2023-08-29T17:44:12.635Z,3.65
2023-08-29T17:46:39.215Z,5.82
2023-08-29T17:49:05.792Z,5.00
2023-08-29T17:51:39.381Z,3.70
2023-08-29T17:54:06.198Z,3.47
2023-08-29T17:56:32.859Z,3.28
2023-08-29T17:58:59.527Z,3.95
2023-08-29T18:01:26.250Z,6.10
2023-08-29T18:03:52.750Z,3.90
2023-08-29T18:06:25.041Z,3.88
2023-08-29T18:08:53.503Z,4.03
2023-08-29T18:11:19.976Z,3.03
2023-08-29T18:13:49.555Z,3.78
2023-08-29T18:16:16.020Z,3.30
2023-08-29T18:18:42.487Z,4.82
2023-08-29T18:21:08.949Z,4.20
2023-08-29T18:23:35.876Z,4.90
2023-08-29T18:26:05.469Z,2.85
2023-08-29T18:28:33.497Z,5.80
2023-08-29T18:31:06.578Z,9.65
2023-08-29T18:33:34.617Z,8.27
2023-08-29T18:36:02.213Z,7.00
2023-08-29T18:38:29.149Z,5.65
2023-08-29T18:40:55.657Z,6.80
2023-08-29T18:43:22.017Z,4.20
2023-08-29T18:45:48.438Z,4.32
2023-08-29T18:48:15.602Z,5.40
2023-08-29T18:50:42.197Z,4.22
2023-08-29T18:53:08.616Z,4.93
2023-08-29T18:55:38.217Z,5.18
2023-08-29T18:58:04.577Z,4.57
2023-08-29T19:00:31.034Z,4.80
2023-08-29T19:02:58.148Z,3.63
2023-08-29T19:05:24.595Z,5.05
2023-08-29T19:07:51.061Z,4.72
2023-08-29T19:10:17.881Z,3.50
2023-08-29T19:12:46.670Z,4.85
2023-08-29T19:15:13.071Z,5.53
2023-08-29T19:17:40.444Z,4.38
2023-08-29T19:20:07.327Z,4.43
2023-08-29T19:22:34.230Z,4.18
2023-08-29T19:25:00.659Z,4.65
2023-08-29T19:27:28.804Z,3.65
2023-08-29T19:29:55.579Z,4.85
2023-08-29T19:32:22.589Z,6.47
2023-08-29T19:34:49.091Z,4.57
2023-08-29T19:37:16.920Z,7.00
2023-08-29T19:39:43.376Z,5.82
2023-08-29T19:42:09.824Z,5.47
2023-08-29T19:44:36.278Z,7.22
2023-08-29T19:47:06.386Z,7.30
2023-08-29T19:49:43.219Z,6.63
2023-08-29T19:52:09.626Z,4.40
2023-08-29T19:54:36.095Z,6.90
2023-08-29T19:57:02.545Z,8.30
2023-08-29T19:59:29.414Z,5.40
2023-08-29T20:01:56.092Z,5.90
2023-08-29T20:04:22.523Z,7.47
2023-08-29T20:06:48.907Z,5.72
2023-08-29T20:09:15.498Z,7.35
2023-08-29T20:11:44.633Z,6.82
2023-08-29T20:14:12.820Z,8.60
2023-08-29T20:16:39.224Z,6.50
2023-08-29T20:19:06.744Z,8.20
2023-08-29T20:21:33.104Z,6.57
2023-08-29T20:24:02.605Z,8.38
2023-08-29T20:26:31.224Z,9.52
2023-08-29T20:28:57.982Z,7.78
2023-08-29T20:31:24.494Z,7.47
2023-08-29T20:33:50.977Z,6.68
2023-08-29T20:36:17.507Z,8.10
2023-08-29T20:38:44.377Z,7.82
2023-08-29T20:41:10.835Z,8.25
2023-08-29T20:43:37.241Z,7.18
2023-08-29T20:46:03.692Z,6.38
2023-08-29T20:48:30.187Z,8.65
2023-08-29T20:51:04.410Z,9.25
2023-08-29T20:53:32.527Z,9.13
2023-08-29T20:55:59.247Z,10.32
2023-08-29T20:58:25.953Z,6.85
2023-08-29T21:00:59.633Z,6.30
2023-08-29T21:03:28.168Z,7.40
2023-08-29T21:05:54.702Z,7.88
2023-08-29T21:08:21.530Z,8.85
2023-08-29T21:10:48.090Z,7.57
2023-08-29T21:13:14.975Z,7.60
2023-08-29T21:15:41.949Z,6.50
2023-08-29T21:18:08.727Z,7.65
2023-08-29T21:20:38.088Z,6.95
2023-08-29T21:23:06.349Z,7.95
2023-08-29T21:25:33.668Z,6.63
2023-08-29T21:28:00.203Z,6.82
2023-08-29T21:30:26.675Z,7.78
2023-08-29T21:32:53.136Z,11.02
2023-08-29T21:35:21.156Z,6.85
2023-08-29T21:37:47.557Z,8.15
2023-08-29T21:40:13.949Z,9.82
2023-08-29T21:42:40.324Z,8.25
2023-08-29T21:45:08.745Z,7.80
2023-08-29T21:47:35.217Z,7.25
2023-08-29T21:50:01.643Z,6.03
2023-08-29T21:52:28.004Z,7.80
2023-08-29T21:54:54.381Z,6.18
2023-08-29T21:57:20.806Z,6.55
2023-08-29T21:59:47.175Z,8.07
2023-08-29T22:02:13.581Z,10.90
2023-08-29T22:04:39.966Z,7.50
2023-08-29T22:07:06.339Z,7.85
2023-08-29T22:09:33.182Z,5.60
2023-08-29T22:11:59.549Z,8.98
2023-08-29T22:14:26.417Z,7.10
2023-08-29T22:16:52.789Z,8.82
2023-08-29T22:19:19.672Z,7.28
2023-08-29T22:21:46.040Z,9.52
2023-08-29T22:24:12.489Z,4.78
2023-08-29T22:26:38.872Z,7.45
2023-08-29T22:29:05.298Z,9.80
2023-08-29T22:31:31.680Z,7.65
2023-08-29T22:33:58.065Z,6.32
2023-08-29T22:36:24.426Z,7.28
2023-08-29T22:38:50.910Z,7.95
2023-08-29T22:41:32.423Z,5.38
2023-08-29T22:44:00.293Z,7.38
2023-08-29T22:46:27.164Z,7.13
2023-08-29T22:48:54.714Z,6.82
2023-08-29T22:51:21.116Z,6.18
2023-08-29T22:53:47.560Z,7.28
2023-08-29T22:56:13.937Z,7.47
2023-08-29T22:58:40.309Z,7.32
2023-08-29T23:01:08.446Z,6.95
2023-08-29T23:03:35.006Z,4.90
2023-08-29T23:06:01.392Z,5.72
2023-08-29T23:08:27.846Z,5.45
2023-08-29T23:10:54.245Z,5.00
2023-08-29T23:13:20.642Z,6.20
2023-08-29T23:15:50.634Z,4.88
2023-08-29T23:18:17.193Z,9.90
2023-08-29T23:20:43.596Z,6.18
2023-08-29T23:23:10.101Z,7.55
2023-08-29T23:25:36.587Z,7.53
2023-08-29T23:28:03.101Z,6.78
2023-08-29T23:30:29.944Z,5.30
2023-08-29T23:32:56.428Z,5.75
2023-08-29T23:35:22.827Z,6.53
2023-08-29T23:37:49.171Z,8.43
2023-08-29T23:40:15.587Z,6.65
2023-08-29T23:42:41.958Z,5.72
2023-08-29T23:45:09.637Z,6.95
2023-08-29T23:47:36.631Z,6.60
2023-08-29T23:50:03.255Z,6.93
2023-08-29T23:52:29.693Z,6.70
2023-08-29T23:54:56.031Z,5.78
2023-08-29T23:57:22.390Z,5.07
2023-08-29T23:59:48.751Z,6.35
